createdAt,value
2019-02-25T00:00:35.499Z,28.27
2019-02-25T00:03:03.222Z,28.17
2019-02-25T00:05:31.092Z,27.10
2019-02-25T00:07:58.514Z,21.80
2019-02-25T00:10:26.327Z,24.53
2019-02-25T00:12:53.891Z,25.60
2019-02-25T00:15:21.588Z,29.63
2019-02-25T00:17:49.089Z,25.17
2019-02-25T00:20:16.897Z,26.07
2019-02-25T00:22:44.607Z,31.23
2019-02-25T00:25:15.153Z,27.83
2019-02-25T00:27:42.871Z,23.60
2019-02-25T00:30:10.655Z,22.23
2019-02-25T00:32:38.480Z,21.80
2019-02-25T00:35:06.275Z,22.97
2019-02-25T00:37:34.124Z,24.43
2019-02-25T00:40:01.866Z,23.90
2019-02-25T00:42:29.589Z,21.80
2019-02-25T00:44:56.936Z,24.07
2019-02-25T00:47:24.405Z,23.73
2019-02-25T00:49:51.976Z,27.97
2019-02-25T00:52:19.771Z,27.87
2019-02-25T00:54:47.129Z,23.93
2019-02-25T00:57:14.852Z,24.00
2019-02-25T00:59:43.061Z,24.67
2019-02-25T01:02:11.150Z,26.57
2019-02-25T01:04:38.934Z,24.47
2019-02-25T01:07:06.875Z,29.10
2019-02-25T01:09:34.421Z,27.67
2019-02-25T01:12:01.882Z,26.83
2019-02-25T01:14:29.543Z,25.00
2019-02-25T01:16:57.179Z,25.53
2019-02-25T01:19:24.988Z,27.40
2019-02-25T01:21:52.884Z,28.17
2019-02-25T01:24:23.768Z,30.73
2019-02-25T01:26:51.448Z,32.17
2019-02-25T01:29:19.151Z,28.20
2019-02-25T01:31:47.052Z,31.07
2019-02-25T01:34:14.990Z,28.70
2019-02-25T01:36:42.707Z,31.37
2019-02-25T01:39:10.202Z,31.07
2019-02-25T01:41:38.031Z,28.50
2019-02-25T01:44:05.847Z,29.97
2019-02-25T01:46:33.679Z,27.17
2019-02-25T01:49:01.733Z,27.37
2019-02-25T01:51:29.461Z,29.17
2019-02-25T01:53:57.174Z,29.23
2019-02-25T01:56:24.960Z,28.13
2019-02-25T01:58:52.844Z,28.20
2019-02-25T02:01:20.518Z,28.27
2019-02-25T02:03:48.103Z,30.70
2019-02-25T02:06:15.929Z,30.50
2019-02-25T02:08:44.025Z,29.30
2019-02-25T02:11:12.218Z,28.10
2019-02-25T02:13:40.380Z,24.33
2019-02-25T02:16:08.183Z,25.50
2019-02-25T02:18:35.565Z,25.30
2019-02-25T02:21:03.312Z,25.40
2019-02-25T02:23:31.272Z,27.17
2019-02-25T02:25:59.072Z,25.10
2019-02-25T02:28:28.955Z,24.57
2019-02-25T02:30:56.934Z,27.37
2019-02-25T02:33:24.726Z,29.80
2019-02-25T02:35:52.825Z,30.60
2019-02-25T02:38:20.884Z,29.33
2019-02-25T02:40:48.763Z,29.53
2019-02-25T02:43:16.189Z,28.00
2019-02-25T02:46:08.059Z,32.83
2019-02-25T02:48:40.026Z,33.20
2019-02-25T02:51:07.430Z,31.60
2019-02-25T02:53:34.781Z,31.87
2019-02-25T02:56:02.251Z,30.60
2019-02-25T02:58:30.675Z,33.23
2019-02-25T03:00:58.380Z,28.60
2019-02-25T03:03:25.769Z,33.87
2019-02-25T03:05:53.460Z,31.77
2019-02-25T03:08:21.139Z,29.40
2019-02-25T03:10:48.941Z,29.57
2019-02-25T03:13:16.840Z,30.43
2019-02-25T03:15:44.500Z,29.63
2019-02-25T03:18:12.169Z,36.83
2019-02-25T03:20:39.637Z,30.97
2019-02-25T03:23:07.416Z,27.83
2019-02-25T03:25:34.880Z,30.00
2019-02-25T03:28:02.751Z,31.50
2019-02-25T03:30:30.550Z,32.00
2019-02-25T03:32:58.060Z,34.33
2019-02-25T03:35:25.726Z,37.47
2019-02-25T03:37:53.279Z,30.40
2019-02-25T03:40:21.041Z,26.57
2019-02-25T03:42:48.711Z,27.60
2019-02-25T03:45:17.063Z,30.37
2019-02-25T03:47:45.009Z,34.50
2019-02-25T03:50:12.994Z,30.73
2019-02-25T03:52:40.700Z,32.83
2019-02-25T03:55:10.751Z,31.00
2019-02-25T03:57:38.619Z,29.07
2019-02-25T04:00:08.260Z,29.30
2019-02-25T04:02:36.187Z,28.53
2019-02-25T04:05:04.549Z,29.00
2019-02-25T04:07:33.044Z,29.27
2019-02-25T04:10:01.026Z,28.57
2019-02-25T04:12:28.376Z,34.47
2019-02-25T04:14:56.114Z,33.87
2019-02-25T04:17:23.893Z,29.77
2019-02-25T04:19:51.691Z,31.87
2019-02-25T04:22:19.106Z,33.57
2019-02-25T04:24:46.689Z,33.30
2019-02-25T04:27:14.667Z,31.63
2019-02-25T04:29:42.596Z,35.93
2019-02-25T04:32:10.372Z,33.97
2019-02-25T04:34:38.173Z,34.07
2019-02-25T04:37:06.074Z,31.30
2019-02-25T04:39:33.574Z,29.87
2019-02-25T04:42:01.400Z,35.27
2019-02-25T04:44:28.921Z,29.77
2019-02-25T04:46:56.888Z,29.03
2019-02-25T04:49:25.017Z,27.67
2019-02-25T04:51:52.831Z,32.63
2019-02-25T04:54:22.319Z,27.03
2019-02-25T04:56:50.480Z,31.87
2019-02-25T04:59:18.350Z,29.13
2019-02-25T05:01:46.246Z,30.30
2019-02-25T05:04:14.033Z,31.67
2019-02-25T05:06:41.721Z,33.33
2019-02-25T05:09:11.234Z,29.17
2019-02-25T05:11:39.117Z,40.30
2019-02-25T05:14:06.974Z,36.70
2019-02-25T05:16:34.596Z,35.37
2019-02-25T05:19:02.477Z,34.57
2019-02-25T05:21:40.472Z,34.07
2019-02-25T05:24:08.027Z,34.20
2019-02-25T05:26:35.437Z,34.03
2019-02-25T05:29:03.555Z,33.50
2019-02-25T05:31:31.465Z,32.93
2019-02-25T05:34:57.761Z,30.33
2019-02-25T05:37:25.317Z,35.87
2019-02-25T05:40:01.019Z,41.20
2019-02-25T05:42:28.879Z,36.13
2019-02-25T05:45:02.195Z,31.10
2019-02-25T05:47:30.019Z,32.03
2019-02-25T05:50:01.917Z,26.47
2019-02-25T05:52:30.222Z,30.67
2019-02-25T05:54:58.188Z,35.67
2019-02-25T05:57:28.565Z,32.33
2019-02-25T05:59:59.653Z,31.27
2019-02-25T06:02:28.068Z,33.30
2019-02-25T06:04:56.299Z,32.17
2019-02-25T06:07:24.189Z,33.93
2019-02-25T06:09:52.423Z,30.37
2019-02-25T06:12:36.726Z,33.70
2019-02-25T06:17:51.243Z,33.63
2019-02-25T06:20:19.323Z,34.03
2019-02-25T06:22:49.546Z,30.27
2019-02-25T06:25:18.026Z,34.83
2019-02-25T06:27:45.703Z,30.80
2019-02-25T06:30:15.789Z,34.53
2019-02-25T06:32:43.883Z,33.03
2019-02-25T06:35:12.156Z,33.83
2019-02-25T06:37:40.409Z,32.83
2019-02-25T06:40:15.229Z,31.33
2019-02-25T06:42:42.801Z,37.10
2019-02-25T06:45:15.291Z,31.13
2019-02-25T06:47:42.867Z,31.23
2019-02-25T06:50:15.053Z,29.90
2019-02-25T06:55:49.469Z,34.50
2019-02-25T06:58:18.172Z,27.23
2019-02-25T07:00:47.117Z,29.00
2019-02-25T07:07:22.290Z,29.53
2019-02-25T07:10:05.630Z,33.83
2019-02-25T07:12:48.085Z,29.40
2019-02-25T07:15:26.495Z,25.87
2019-02-25T07:18:11.728Z,25.47
2019-02-25T07:20:49.338Z,27.37
2019-02-25T07:23:34.628Z,27.83
2019-02-25T07:26:21.047Z,30.17
2019-02-25T07:29:07.921Z,25.90
2019-02-25T07:31:42.975Z,26.77
2019-02-25T07:34:18.573Z,23.53
2019-02-25T08:02:25.338Z,18.50
2019-02-25T08:05:07.107Z,21.83
2019-02-25T08:07:44.728Z,22.03
2019-02-25T08:10:24.112Z,21.07
2019-02-25T08:13:08.046Z,23.50
2019-02-25T08:15:53.941Z,22.27
2019-02-25T08:18:37.851Z,21.90
2019-02-25T08:21:23.668Z,23.23
2019-02-25T08:24:11.521Z,26.77
2019-02-25T08:27:00.431Z,29.13
2019-02-25T08:30:05.875Z,26.10
2019-02-25T08:33:05.078Z,30.67
2019-02-25T08:36:50.724Z,30.43
2019-02-25T08:39:28.620Z,27.62
2019-02-25T08:42:03.168Z,24.23
2019-02-25T08:44:38.564Z,24.37
2019-02-25T08:47:30.900Z,24.35
2019-02-25T08:50:01.786Z,20.95
2019-02-25T08:52:29.524Z,22.27
2019-02-25T08:54:57.427Z,22.80
2019-02-25T08:57:25.618Z,21.87
2019-02-25T08:59:55.988Z,22.73
2019-02-25T09:02:24.499Z,21.33
2019-02-25T09:04:52.630Z,21.80
2019-02-25T09:07:22.967Z,22.70
2019-02-25T09:09:54.157Z,22.37
2019-02-25T09:12:25.060Z,22.83
2019-02-25T09:14:53.723Z,22.60
2019-02-25T09:17:22.878Z,22.33
2019-02-25T09:19:50.907Z,22.60
2019-02-25T09:22:18.835Z,21.87
2019-02-25T09:24:46.843Z,21.67
2019-02-25T09:27:14.679Z,21.87
2019-02-25T09:29:44.858Z,22.17
2019-02-25T09:32:12.783Z,21.30
2019-02-25T09:34:40.528Z,21.55
2019-02-25T09:37:08.839Z,21.30
2019-02-25T09:39:36.986Z,21.03
2019-02-25T09:42:04.825Z,20.60
2019-02-25T09:44:34.458Z,19.77
2019-02-25T09:47:05.110Z,22.17
2019-02-25T09:49:33.367Z,20.77
2019-02-25T09:52:01.215Z,21.63
2019-02-25T09:54:28.927Z,22.00
2019-02-25T09:56:56.927Z,20.73
2019-02-25T09:59:25.078Z,21.77
2019-02-25T10:01:53.079Z,20.17
2019-02-25T10:04:20.695Z,21.13
2019-02-25T10:06:48.585Z,20.67
2019-02-25T10:09:16.432Z,20.93
2019-02-25T10:11:48.702Z,20.27
2019-02-25T10:14:16.228Z,19.33
2019-02-25T10:16:47.005Z,21.73
2019-02-25T10:19:15.052Z,21.23
2019-02-25T10:21:42.923Z,20.90
2019-02-25T10:24:10.967Z,21.10
2019-02-25T10:26:39.046Z,20.70
2019-02-25T10:29:07.274Z,22.50
2019-02-25T10:31:35.280Z,21.93
2019-02-25T10:34:05.355Z,22.77
2019-02-25T10:36:34.113Z,21.20
2019-02-25T10:39:02.072Z,21.63
2019-02-25T10:41:30.169Z,22.03
2019-02-25T10:44:00.126Z,21.73
2019-02-25T10:46:28.762Z,22.77
2019-02-25T10:49:04.956Z,22.17
2019-02-25T10:51:29.060Z,23.90
2019-02-25T10:53:57.626Z,23.23
2019-02-25T10:56:39.423Z,22.63
2019-02-25T10:59:08.326Z,22.33
2019-02-25T11:01:39.059Z,24.10
2019-02-25T11:04:10.806Z,25.30
2019-02-25T11:06:39.823Z,22.83
2019-02-25T11:09:33.473Z,24.47
2019-02-25T11:12:01.626Z,24.00
2019-02-25T11:14:31.224Z,21.70
2019-02-25T11:17:02.041Z,24.40
2019-02-25T11:19:30.715Z,23.43
2019-02-25T11:22:01.215Z,22.77
2019-02-25T11:24:29.726Z,23.40
2019-02-25T11:26:59.039Z,27.30
2019-02-25T11:29:28.672Z,23.13
2019-02-25T11:31:57.029Z,23.63
2019-02-25T11:34:25.097Z,22.83
2019-02-25T11:36:54.939Z,22.60
2019-02-25T11:39:25.171Z,21.20
2019-02-25T11:41:53.044Z,21.90
2019-02-25T11:44:22.991Z,22.93
2019-02-25T11:46:51.657Z,21.57
2019-02-25T11:49:19.706Z,24.90
2019-02-25T11:51:48.049Z,21.80
2019-02-25T11:54:17.369Z,20.70
2019-02-25T11:56:45.655Z,20.73
2019-02-25T11:59:14.839Z,21.10
2019-02-25T12:01:42.512Z,19.87
2019-02-25T12:04:11.242Z,18.87
2019-02-25T12:06:39.645Z,18.23
2019-02-25T12:09:09.954Z,20.30
2019-02-25T12:11:39.977Z,18.47
2019-02-25T12:14:08.927Z,17.57
2019-02-25T12:16:37.976Z,18.43
2019-02-25T12:19:05.924Z,17.57
2019-02-25T12:21:33.816Z,18.33
2019-02-25T12:24:01.855Z,20.00
2019-02-25T12:26:29.995Z,19.30
2019-02-25T12:28:58.304Z,19.40
2019-02-25T12:31:33.989Z,20.10
2019-02-25T12:34:03.164Z,20.30
2019-02-25T12:36:33.729Z,19.83
2019-02-25T12:39:02.600Z,19.27
2019-02-25T12:41:32.703Z,20.03
2019-02-25T12:44:01.458Z,19.00
2019-02-25T12:46:29.164Z,18.80
2019-02-25T12:49:00.642Z,19.33
2019-02-25T12:51:29.536Z,19.47
2019-02-25T12:53:59.544Z,18.23
2019-02-25T12:56:27.293Z,23.13
2019-02-25T12:58:55.761Z,19.47
2019-02-25T13:01:24.329Z,18.57
2019-02-25T13:03:53.086Z,17.80
2019-02-25T13:06:22.398Z,17.77
2019-02-25T13:08:50.945Z,17.63
2019-02-25T13:11:21.363Z,18.77
2019-02-25T13:13:51.702Z,16.00
2019-02-25T13:16:19.874Z,18.17
2019-02-25T13:18:47.737Z,18.40
2019-02-25T13:21:17.276Z,17.50
2019-02-25T13:23:47.593Z,18.17
2019-02-25T13:26:16.364Z,17.90
2019-02-25T13:28:44.879Z,17.00
2019-02-25T13:31:14.068Z,17.83
2019-02-25T13:33:44.000Z,18.90
2019-02-25T13:36:15.365Z,16.73
2019-02-25T13:38:45.102Z,16.20
2019-02-25T13:41:13.907Z,16.80
2019-02-25T13:43:48.551Z,17.20
2019-02-25T13:46:17.819Z,16.47
2019-02-25T13:48:47.941Z,17.87
2019-02-25T13:51:19.527Z,17.47
2019-02-25T13:56:50.947Z,17.37
2019-02-25T13:59:23.311Z,19.00
2019-02-25T14:01:58.737Z,17.50
2019-02-25T14:04:27.358Z,19.50
2019-02-25T14:06:57.006Z,17.80
2019-02-25T14:09:25.300Z,19.17
2019-02-25T14:11:54.692Z,18.57
2019-02-25T14:14:24.133Z,17.53
2019-02-25T14:16:52.585Z,17.80
2019-02-25T14:19:22.268Z,19.57
2019-02-25T14:21:51.215Z,18.27
2019-02-25T14:24:20.787Z,16.87
2019-02-25T14:26:48.939Z,18.30
2019-02-25T14:29:18.104Z,17.80
2019-02-25T14:31:46.308Z,16.47
2019-02-25T14:34:15.823Z,14.70
2019-02-25T14:36:43.435Z,15.57
2019-02-25T14:39:27.816Z,15.70
2019-02-25T14:41:54.664Z,14.83
2019-02-25T14:44:27.173Z,15.73
2019-02-25T14:46:52.891Z,16.87
2019-02-25T14:49:20.644Z,17.07
2019-02-25T14:51:48.728Z,17.00
2019-02-25T14:54:19.814Z,16.83
2019-02-25T14:56:50.258Z,17.53
2019-02-25T14:59:22.256Z,17.37
2019-02-25T15:01:50.342Z,16.43
2019-02-25T15:04:18.585Z,17.87
2019-02-25T15:06:46.512Z,17.60
2019-02-25T15:09:16.254Z,17.07
2019-02-25T16:06:24.827Z,19.23
2019-02-25T16:09:00.449Z,18.40
2019-02-25T16:11:31.656Z,18.17
2019-02-25T16:14:00.673Z,18.63
2019-02-25T16:16:32.513Z,19.10
2019-02-25T16:19:01.823Z,18.13
2019-02-25T16:21:31.013Z,17.47
2019-02-25T16:24:04.309Z,17.83
2019-02-25T16:26:54.143Z,17.60
2019-02-25T16:29:24.564Z,17.27
2019-02-25T16:39:05.896Z,16.50
2019-02-25T16:41:38.717Z,21.10
2019-02-25T16:44:16.075Z,16.90
2019-02-25T16:46:59.924Z,18.10
2019-02-25T16:49:47.438Z,16.93
2019-02-25T16:53:20.228Z,18.63
2019-02-25T16:56:14.174Z,16.60
2019-02-25T17:02:30.108Z,16.73
2019-02-25T18:44:18.149Z,22.03
2019-02-25T18:46:49.899Z,20.10
2019-02-25T18:49:21.345Z,23.97
2019-02-25T18:52:03.214Z,21.53
2019-02-25T18:54:33.093Z,18.13
2019-02-25T18:57:12.180Z,21.97
2019-02-25T18:59:45.579Z,21.90
2019-02-25T19:02:14.570Z,19.70
2019-02-25T19:04:45.660Z,22.63
2019-02-25T19:07:15.588Z,29.57
2019-02-25T19:09:53.944Z,25.27
2019-02-25T19:12:25.663Z,22.63
2019-02-25T19:14:55.774Z,22.47
2019-02-25T19:17:25.422Z,20.97
2019-02-25T19:19:53.743Z,22.90
2019-02-25T19:22:21.670Z,22.07
2019-02-25T19:24:52.406Z,25.40
2019-02-25T19:27:20.948Z,22.23
2019-02-25T19:29:49.406Z,22.77
2019-02-25T19:32:20.990Z,24.53
2019-02-25T19:34:54.107Z,23.67
2019-02-25T19:37:28.901Z,29.83
2019-02-25T19:39:59.057Z,28.00
2019-02-25T19:42:29.549Z,28.60
2019-02-25T19:44:58.999Z,29.70
2019-02-25T19:47:43.111Z,28.83
2019-02-25T19:50:11.735Z,28.73
2019-02-25T19:52:41.864Z,27.83
2019-02-25T19:55:10.519Z,28.60
2019-02-25T19:57:38.588Z,28.07
2019-02-25T20:00:27.737Z,25.47
2019-02-25T20:03:04.757Z,27.33
2019-02-25T20:05:54.487Z,28.87
2019-02-25T20:08:20.130Z,30.97
2019-02-25T20:10:47.669Z,28.80
2019-02-25T20:13:15.991Z,29.57
2019-02-25T20:15:53.229Z,29.37
2019-02-25T20:18:27.179Z,28.27
2019-02-25T20:20:59.325Z,28.53
2019-02-25T20:23:29.221Z,32.60
2019-02-25T20:25:58.140Z,32.90
2019-02-25T20:28:26.840Z,28.47
2019-02-25T20:31:09.605Z,25.73
2019-02-25T20:33:43.548Z,28.00
2019-02-25T20:36:12.051Z,27.10
2019-02-25T20:38:44.907Z,28.20
2019-02-25T20:41:16.014Z,35.73
2019-02-25T20:43:47.217Z,31.57
2019-02-25T20:46:21.973Z,33.97
2019-02-25T20:48:48.549Z,57.33
2019-02-25T20:51:18.139Z,55.97
2019-02-25T20:53:57.160Z,38.93
2019-02-25T20:56:55.493Z,31.80
2019-02-25T20:59:25.778Z,31.00
2019-02-25T21:01:59.803Z,30.87
2019-02-25T21:04:27.874Z,28.70
2019-02-25T21:06:55.982Z,33.17
2019-02-25T21:09:24.694Z,32.57
2019-02-25T21:11:56.163Z,32.00
2019-02-25T21:14:24.040Z,29.40
2019-02-25T21:16:53.781Z,30.23
2019-02-25T21:19:21.943Z,30.87
2019-02-25T21:28:02.298Z,32.10
2019-02-25T21:30:30.225Z,33.97
2019-02-25T21:32:58.925Z,34.97
2019-02-25T21:35:28.299Z,31.20
2019-02-25T21:37:57.218Z,34.03
2019-02-25T21:40:27.120Z,34.93
2019-02-25T21:42:56.658Z,32.07
2019-02-25T21:45:26.508Z,32.53
2019-02-25T21:54:53.868Z,31.97
2019-02-25T21:57:21.821Z,33.33
2019-02-25T21:59:49.779Z,33.40
2019-02-25T22:02:19.940Z,33.97
2019-02-25T22:04:49.666Z,33.90
2019-02-25T22:07:22.240Z,35.87
2019-02-25T22:09:46.713Z,31.03
2019-02-25T22:12:14.589Z,36.33
2019-02-25T22:14:43.454Z,40.83
2019-02-25T22:17:12.950Z,36.50
2019-02-25T22:19:43.728Z,40.27
2019-02-25T22:22:11.597Z,34.43
2019-02-25T22:24:40.607Z,39.57
2019-02-25T22:27:09.639Z,38.33
2019-02-25T22:29:38.650Z,35.97
2019-02-25T22:32:08.751Z,35.97
2019-02-25T22:34:36.788Z,38.10
2019-02-25T22:40:30.064Z,35.50
2019-02-25T22:42:58.805Z,37.00
2019-02-25T22:45:26.582Z,37.10
2019-02-25T22:48:11.593Z,39.33
2019-02-25T22:50:29.062Z,36.87
2019-02-25T22:53:04.241Z,39.67
2019-02-25T22:55:47.304Z,45.13
2019-02-25T22:58:15.007Z,36.20
2019-02-25T23:00:48.914Z,38.70
2019-02-25T23:03:34.397Z,43.50
2019-02-25T23:06:01.207Z,40.43
2019-02-25T23:08:28.676Z,39.00
2019-02-25T23:11:09.997Z,42.27
2019-02-25T23:13:50.298Z,42.53
2019-02-25T23:16:22.193Z,40.07
2019-02-25T23:18:49.650Z,42.43
2019-02-25T23:21:23.784Z,40.10
2019-02-25T23:23:51.269Z,39.03
2019-02-25T23:26:19.881Z,40.07
2019-02-25T23:28:49.268Z,42.53
2019-02-25T23:31:18.400Z,37.00
2019-02-25T23:33:47.213Z,42.93
2019-02-25T23:36:17.531Z,46.40
2019-02-25T23:38:45.277Z,45.73
2019-02-25T23:41:14.431Z,45.17
2019-02-25T23:43:42.731Z,48.03
2019-02-25T23:46:11.872Z,50.00
2019-02-25T23:48:41.804Z,43.57
2019-02-25T23:51:09.856Z,43.80
2019-02-25T23:53:37.611Z,40.10
2019-02-25T23:56:05.507Z,43.03
2019-02-25T23:58:33.071Z,40.13
